createdAt,value
2023-02-06T00:00:51.395Z,6.89
2023-02-06T00:03:18.072Z,6.21
2023-02-06T00:05:44.445Z,6.58
2023-02-06T00:08:10.801Z,6.58
2023-02-06T00:10:37.178Z,6.41
2023-02-06T00:13:03.586Z,6.73
2023-02-06T00:15:29.942Z,6.30
2023-02-06T00:17:56.340Z,6.52
2023-02-06T00:20:22.696Z,6.40
2023-02-06T00:22:49.020Z,6.58
2023-02-06T00:25:15.381Z,6.64
2023-02-06T00:27:41.715Z,6.63
2023-02-06T00:30:08.351Z,6.60
2023-02-06T00:32:35.212Z,6.50
2023-02-06T00:35:01.718Z,6.47
2023-02-06T00:37:28.048Z,6.59
2023-02-06T00:39:54.561Z,6.57
2023-02-06T00:42:21.114Z,6.64
2023-02-06T00:44:47.462Z,6.56
2023-02-06T00:47:13.888Z,6.49
2023-02-06T00:49:40.213Z,6.42
2023-02-06T00:52:06.733Z,5.66
2023-02-06T00:54:33.105Z,6.36
2023-02-06T00:56:59.488Z,6.31
2023-02-06T00:59:25.989Z,6.22
2023-02-06T01:01:52.333Z,6.21
2023-02-06T01:04:18.693Z,6.28
2023-02-06T01:06:45.050Z,5.94
2023-02-06T01:09:11.439Z,6.16
2023-02-06T01:11:37.793Z,5.81
2023-02-06T01:14:04.202Z,5.85
2023-02-06T01:16:30.687Z,4.81
2023-02-06T01:18:57.040Z,6.05
2023-02-06T01:21:24.960Z,5.81
2023-02-06T01:23:53.691Z,6.01
2023-02-06T01:26:23.326Z,5.76
2023-02-06T01:28:50.498Z,5.85
2023-02-06T01:31:21.502Z,5.98
2023-02-06T01:33:48.923Z,5.74
2023-02-06T01:36:16.777Z,5.99
2023-02-06T01:38:43.372Z,5.47
2023-02-06T01:41:11.484Z,5.89
2023-02-06T01:43:44.540Z,6.05
2023-02-06T01:46:11.076Z,5.98
2023-02-06T01:48:42.713Z,5.62
2023-02-06T01:51:14.504Z,5.75
2023-02-06T01:53:44.311Z,5.68
2023-02-06T01:56:11.045Z,5.90
2023-02-06T01:58:41.309Z,5.59
2023-02-06T02:01:08.643Z,5.82
2023-02-06T02:03:39.017Z,5.82
2023-02-06T02:06:10.075Z,5.89
2023-02-06T02:08:42.492Z,5.81
2023-02-06T02:11:11.863Z,5.83
2023-02-06T02:13:38.934Z,5.38
2023-02-06T02:16:43.744Z,5.85
2023-02-06T02:19:37.195Z,5.44
2023-02-06T02:22:22.248Z,5.80
2023-02-06T02:25:05.986Z,5.78
2023-02-06T02:27:46.938Z,5.89
2023-02-06T02:30:35.158Z,5.95
2023-02-06T02:33:37.173Z,5.98
2023-02-06T02:36:28.566Z,6.00
2023-02-06T02:39:26.007Z,6.04
2023-02-06T02:42:03.888Z,5.33
2023-02-06T02:44:52.622Z,5.97
2023-02-06T02:47:23.687Z,5.96
2023-02-06T02:49:50.378Z,5.81
2023-02-06T02:52:16.726Z,5.48
2023-02-06T02:54:43.107Z,5.60
2023-02-06T02:57:14.599Z,5.06
2023-02-06T02:59:45.429Z,5.39
2023-02-06T03:02:21.941Z,5.68
2023-02-06T03:04:53.015Z,5.86
2023-02-06T03:07:37.608Z,5.94
2023-02-06T03:10:37.496Z,5.95
2023-02-06T03:13:16.200Z,5.70
2023-02-06T03:16:03.044Z,5.78
2023-02-06T03:18:52.579Z,5.67
2023-02-06T03:21:21.821Z,5.15
2023-02-06T03:23:52.760Z,4.93
2023-02-06T03:26:23.136Z,5.39
2023-02-06T03:28:52.946Z,5.51
2023-02-06T03:31:26.827Z,5.35
2023-02-06T03:34:03.440Z,5.27
2023-02-06T03:36:29.912Z,5.32
2023-02-06T03:38:56.381Z,5.02
2023-02-06T03:41:28.048Z,5.18
2023-02-06T03:43:55.598Z,5.20
2023-02-06T03:46:24.178Z,5.12
2023-02-06T03:48:55.716Z,5.31
2023-02-06T03:51:28.308Z,5.03
2023-02-06T03:53:58.462Z,4.70
2023-02-06T03:56:34.723Z,4.87
2023-02-06T03:59:01.236Z,4.32
2023-02-06T04:01:27.914Z,4.95
2023-02-06T04:03:54.690Z,5.08
2023-02-06T04:06:21.444Z,4.81
2023-02-06T04:08:47.815Z,4.75
2023-02-06T04:11:14.135Z,4.50
2023-02-06T04:13:40.501Z,4.69
2023-02-06T04:16:06.832Z,4.78
2023-02-06T04:18:33.260Z,4.75
2023-02-06T04:21:05.282Z,4.60
2023-02-06T04:23:31.805Z,4.69
2023-02-06T04:25:58.176Z,4.21
2023-02-06T04:28:24.667Z,3.99
2023-02-06T04:30:51.088Z,4.40
2023-02-06T04:33:18.091Z,4.42
2023-02-06T04:35:44.451Z,4.62
2023-02-06T04:38:10.793Z,4.73
2023-02-06T04:40:37.103Z,4.74
2023-02-06T04:43:03.446Z,4.92
2023-02-06T04:45:29.811Z,4.32
2023-02-06T04:47:57.928Z,4.99
2023-02-06T04:50:26.012Z,5.11
2023-02-06T04:52:52.349Z,4.96
2023-02-06T04:55:18.829Z,4.90
2023-02-06T04:57:45.160Z,4.87
2023-02-06T05:00:12.138Z,4.91
2023-02-06T05:02:39.736Z,4.93
2023-02-06T05:05:08.151Z,4.78
2023-02-06T05:07:35.311Z,4.26
2023-02-06T05:10:02.272Z,5.33
2023-02-06T05:12:31.260Z,5.22
2023-02-06T05:14:57.620Z,5.21
2023-02-06T05:17:24.029Z,5.16
2023-02-06T05:19:50.458Z,5.32
2023-02-06T05:22:16.928Z,5.42
2023-02-06T05:24:43.322Z,5.62
2023-02-06T05:27:10.060Z,5.43
2023-02-06T05:29:36.500Z,4.95
2023-02-06T05:32:02.867Z,5.29
2023-02-06T05:34:29.237Z,4.75
2023-02-06T05:36:55.710Z,5.11
2023-02-06T05:39:22.172Z,4.93
2023-02-06T05:41:48.541Z,5.01
2023-02-06T05:44:14.992Z,4.97
2023-02-06T05:46:41.360Z,4.86
2023-02-06T05:49:07.800Z,4.96
2023-02-06T05:51:34.195Z,5.09
2023-02-06T05:54:00.622Z,5.33
2023-02-06T05:56:27.040Z,4.67
2023-02-06T05:58:53.750Z,4.68
2023-02-06T06:01:20.258Z,4.73
2023-02-06T06:03:46.671Z,5.20
2023-02-06T06:06:13.012Z,5.08
2023-02-06T06:08:39.393Z,5.16
2023-02-06T06:11:07.176Z,4.79
2023-02-06T06:13:34.154Z,5.37
2023-02-06T06:16:00.594Z,5.24
2023-02-06T06:18:27.058Z,5.17
2023-02-06T06:20:53.565Z,5.42
2023-02-06T06:23:19.934Z,5.24
2023-02-06T06:25:47.211Z,5.51
2023-02-06T06:28:15.080Z,5.48
2023-02-06T06:30:41.842Z,5.39
2023-02-06T06:33:08.362Z,5.50
2023-02-06T06:35:35.055Z,5.07
2023-02-06T06:38:01.654Z,5.50
2023-02-06T06:40:28.009Z,5.35
2023-02-06T06:42:54.372Z,5.47
2023-02-06T06:45:20.847Z,5.27
2023-02-06T06:47:47.231Z,5.48
2023-02-06T06:50:13.552Z,5.39
2023-02-06T06:52:39.883Z,5.33
2023-02-06T06:55:06.694Z,5.38
2023-02-06T06:57:33.091Z,5.35
2023-02-06T06:59:59.440Z,5.53
2023-02-06T07:02:25.850Z,5.48
2023-02-06T07:04:52.178Z,5.48
2023-02-06T07:07:18.544Z,5.49
2023-02-06T07:09:44.918Z,4.79
2023-02-06T07:12:11.381Z,5.15
2023-02-06T07:14:37.721Z,5.23
2023-02-06T07:17:04.056Z,5.36
2023-02-06T07:19:30.396Z,5.30
2023-02-06T07:21:57.907Z,5.51
2023-02-06T07:24:24.261Z,5.29
2023-02-06T07:26:50.643Z,5.45
2023-02-06T07:29:17.120Z,5.44
2023-02-06T07:31:43.454Z,4.86
2023-02-06T07:34:09.788Z,5.08
2023-02-06T07:36:36.201Z,5.31
2023-02-06T07:39:03.980Z,5.58
2023-02-06T07:41:30.372Z,5.45
2023-02-06T07:43:56.724Z,5.45
2023-02-06T07:46:23.176Z,4.78
2023-02-06T07:48:49.630Z,5.79
2023-02-06T07:51:16.113Z,5.78
2023-02-06T07:53:42.671Z,5.42
2023-02-06T07:56:10.943Z,5.06
2023-02-06T07:58:37.359Z,4.94
2023-02-06T08:01:05.361Z,5.73
2023-02-06T08:03:32.152Z,5.51
2023-02-06T08:05:58.562Z,4.82
2023-02-06T08:08:25.324Z,5.04
2023-02-06T08:10:52.299Z,5.82
2023-02-06T08:13:18.669Z,5.62
2023-02-06T08:15:45.001Z,5.71
2023-02-06T08:18:11.344Z,5.77
2023-02-06T08:20:37.681Z,5.53
2023-02-06T08:23:04.135Z,5.24
2023-02-06T08:25:30.500Z,5.19
2023-02-06T08:27:56.837Z,5.79
2023-02-06T08:30:23.939Z,5.96
2023-02-06T08:32:50.355Z,5.77
2023-02-06T08:35:16.829Z,5.24
2023-02-06T08:37:43.307Z,6.10
2023-02-06T08:40:10.339Z,5.96
2023-02-06T08:42:36.655Z,5.96
2023-02-06T08:45:03.249Z,6.07
2023-02-06T08:47:29.602Z,6.18
2023-02-06T08:49:55.969Z,6.05
2023-02-06T08:52:23.194Z,6.22
2023-02-06T08:54:51.455Z,6.44
2023-02-06T08:57:17.799Z,6.40
2023-02-06T08:59:44.199Z,6.35
2023-02-06T09:02:11.579Z,6.55
2023-02-06T09:04:38.990Z,6.04
2023-02-06T09:07:05.349Z,6.29
2023-02-06T09:09:31.759Z,6.48
2023-02-06T09:12:03.160Z,6.41
2023-02-06T09:14:29.917Z,6.63
2023-02-06T09:16:59.167Z,6.44
2023-02-06T09:19:26.397Z,6.89
2023-02-06T09:21:53.299Z,6.90
2023-02-06T09:24:20.130Z,7.08
2023-02-06T09:26:58.879Z,6.75
2023-02-06T09:29:28.750Z,7.13
2023-02-06T09:31:57.061Z,6.78
2023-02-06T09:34:25.621Z,6.98
2023-02-06T09:36:54.314Z,7.17
2023-02-06T09:39:20.745Z,7.11
2023-02-06T09:41:53.918Z,7.15
2023-02-06T09:44:27.156Z,6.91
2023-02-06T09:47:06.450Z,7.01
2023-02-06T09:49:43.380Z,7.34
2023-02-06T09:52:18.293Z,7.31
2023-02-06T09:55:08.103Z,7.11
2023-02-06T09:57:56.856Z,7.29
2023-02-06T10:00:23.147Z,7.35
2023-02-06T10:03:20.457Z,7.41
2023-02-06T10:05:57.698Z,7.41
2023-02-06T10:08:44.917Z,7.22
2023-02-06T10:11:32.885Z,7.49
2023-02-06T10:14:04.796Z,7.46
2023-02-06T10:16:58.281Z,7.34
2023-02-06T10:19:49.523Z,7.52
2023-02-06T10:22:20.997Z,7.35
2023-02-06T10:25:01.987Z,7.20
2023-02-06T10:27:28.386Z,7.37
2023-02-06T10:29:54.771Z,7.46
2023-02-06T10:32:40.553Z,7.60
2023-02-06T10:36:08.503Z,7.57
2023-02-06T10:38:49.643Z,7.79
2023-02-06T10:41:39.884Z,7.59
2023-02-06T10:44:24.053Z,7.84
2023-02-06T10:46:53.081Z,7.90
2023-02-06T10:49:31.518Z,7.91
2023-02-06T10:52:01.363Z,7.83
2023-02-06T10:54:38.682Z,7.91
2023-02-06T10:57:13.895Z,7.88
2023-02-06T10:59:45.588Z,7.81
2023-02-06T11:02:23.351Z,8.07
2023-02-06T11:05:10.154Z,8.03
2023-02-06T11:07:41.997Z,8.18
2023-02-06T11:10:14.169Z,8.11
2023-02-06T11:12:49.222Z,8.00
2023-02-06T11:15:23.494Z,7.99
2023-02-06T11:17:52.739Z,7.93
2023-02-06T11:20:23.172Z,8.26
2023-02-06T11:22:53.059Z,7.94
2023-02-06T11:25:28.066Z,8.53
2023-02-06T11:27:55.930Z,8.34
2023-02-06T11:30:39.957Z,8.64
2023-02-06T11:33:22.131Z,8.52
2023-02-06T11:35:52.749Z,8.67
2023-02-06T11:38:22.790Z,8.67
2023-02-06T11:41:03.143Z,8.75
2023-02-06T11:43:41.324Z,8.67
2023-02-06T11:46:17.519Z,8.98
2023-02-06T11:49:07.940Z,8.99
2023-02-06T11:52:26.179Z,8.69
2023-02-06T11:54:56.854Z,8.55
2023-02-06T11:57:26.384Z,8.32
2023-02-06T11:59:54.882Z,8.12
2023-02-06T12:02:28.703Z,8.46
2023-02-06T12:05:03.026Z,8.37
2023-02-06T12:07:37.775Z,8.39
2023-02-06T12:10:18.844Z,8.31
2023-02-06T12:12:57.797Z,8.18
2023-02-06T12:15:45.912Z,7.96
2023-02-06T12:18:17.462Z,8.32
2023-02-06T12:21:27.326Z,8.24
2023-02-06T12:23:58.883Z,8.32
2023-02-06T12:26:29.049Z,8.37
2023-02-06T12:29:09.560Z,8.94
2023-02-06T12:31:47.510Z,9.20
2023-02-06T12:34:19.487Z,9.34
2023-02-06T12:37:14.422Z,9.78
2023-02-06T12:39:43.076Z,9.97
2023-02-06T12:42:31.892Z,10.50
2023-02-06T12:45:19.475Z,10.80
2023-02-06T12:48:15.190Z,10.61
2023-02-06T12:50:47.831Z,10.82
2023-02-06T12:53:28.222Z,10.71
2023-02-06T12:56:13.923Z,10.97
2023-02-06T12:58:43.184Z,10.87
2023-02-06T13:01:34.577Z,10.71
2023-02-06T13:04:05.687Z,10.55
2023-02-06T13:06:42.718Z,10.25
2023-02-06T13:09:20.471Z,10.15
2023-02-06T13:11:47.555Z,10.23
2023-02-06T13:14:24.632Z,10.19
2023-02-06T13:17:16.537Z,10.09
2023-02-06T13:19:42.899Z,10.05
2023-02-06T13:22:09.197Z,10.10
2023-02-06T13:24:41.067Z,9.85
2023-02-06T13:27:07.549Z,10.13
2023-02-06T13:29:48.140Z,9.82
2023-02-06T13:32:22.544Z,10.21
2023-02-06T13:34:48.837Z,10.16
2023-02-06T13:37:37.316Z,10.12
2023-02-06T13:40:21.955Z,9.97
2023-02-06T13:43:17.255Z,9.97
2023-02-06T13:46:00.008Z,9.68
2023-02-06T13:48:57.529Z,9.94
2023-02-06T13:51:59.384Z,9.65
2023-02-06T13:54:44.568Z,9.96
2023-02-06T13:57:27.985Z,9.82
2023-02-06T14:00:02.851Z,9.44
2023-02-06T14:02:39.121Z,9.76
2023-02-06T14:05:11.049Z,9.34
2023-02-06T14:07:50.504Z,8.83
2023-02-06T14:10:27.980Z,8.85
2023-02-06T14:13:03.202Z,8.97
2023-02-06T14:15:50.402Z,9.36
2023-02-06T14:18:27.006Z,9.48
2023-02-06T14:21:18.347Z,9.38
2023-02-06T14:23:50.442Z,9.54
2023-02-06T14:26:47.333Z,9.53
2023-02-06T14:29:49.692Z,9.09
2023-02-06T14:32:36.037Z,9.66
2023-02-06T14:35:36.701Z,9.75
2023-02-06T14:38:38.538Z,9.13
2023-02-06T14:41:05.135Z,9.28
2023-02-06T14:43:36.993Z,8.89
2023-02-06T14:46:08.674Z,9.21
2023-02-06T14:48:55.150Z,9.86
2023-02-06T14:51:28.536Z,9.83
2023-02-06T14:53:58.135Z,9.66
2023-02-06T14:56:30.383Z,9.66
2023-02-06T14:59:07.411Z,8.94
2023-02-06T15:01:33.868Z,9.53
2023-02-06T15:04:18.566Z,9.69
2023-02-06T15:06:57.246Z,9.81
2023-02-06T15:09:28.824Z,9.80
2023-02-06T15:11:58.670Z,9.13
2023-02-06T15:14:33.756Z,9.61
2023-02-06T15:17:02.558Z,9.18
2023-02-06T15:19:31.628Z,9.74
2023-02-06T15:22:01.340Z,9.16
2023-02-06T15:24:45.581Z,9.20
2023-02-06T15:27:27.824Z,9.65
2023-02-06T15:29:55.344Z,9.48
2023-02-06T15:32:29.825Z,9.60
2023-02-06T15:34:57.381Z,9.57
2023-02-06T15:37:35.334Z,9.58
2023-02-06T15:40:08.934Z,9.28
2023-02-06T15:42:36.508Z,8.95
2023-02-06T15:45:03.533Z,9.04
2023-02-06T15:47:30.742Z,9.40
2023-02-06T15:50:00.310Z,9.06
2023-02-06T15:52:43.067Z,9.08
2023-02-06T15:55:30.125Z,9.54
2023-02-06T15:57:58.328Z,9.57
2023-02-06T16:00:31.710Z,9.57
2023-02-06T16:03:03.718Z,9.00
2023-02-06T16:05:40.641Z,9.42
2023-02-06T16:08:16.078Z,9.18
2023-02-06T16:10:43.932Z,9.26
2023-02-06T16:13:15.990Z,9.15
2023-02-06T16:16:20.918Z,8.85
2023-02-06T16:18:48.849Z,9.07
2023-02-06T16:21:18.351Z,9.36
2023-02-06T16:24:00.134Z,9.38
2023-02-06T16:26:29.638Z,9.13
2023-02-06T16:29:24.486Z,9.05
2023-02-06T16:32:17.327Z,9.34
2023-02-06T16:34:45.965Z,9.17
2023-02-06T16:37:15.226Z,8.67
2023-02-06T16:39:43.243Z,8.44
2023-02-06T16:42:22.765Z,9.24
2023-02-06T16:44:57.516Z,8.60
2023-02-06T16:47:24.606Z,8.95
2023-02-06T16:54:13.566Z,8.84
2023-02-06T16:56:45.081Z,8.99
2023-02-06T16:59:25.907Z,8.69
2023-02-06T17:01:52.264Z,8.87
2023-02-06T17:04:19.023Z,8.98
2023-02-06T17:06:45.566Z,8.65
2023-02-06T17:09:13.866Z,8.74
2023-02-06T17:11:40.317Z,8.80
2023-02-06T17:14:06.640Z,8.88
2023-02-06T17:16:33.719Z,8.33
2023-02-06T17:19:00.172Z,8.69
2023-02-06T17:21:29.589Z,8.67
2023-02-06T17:23:56.002Z,8.71
2023-02-06T17:26:22.954Z,8.79
2023-02-06T17:28:50.594Z,8.65
2023-02-06T17:31:17.730Z,8.60
2023-02-06T17:33:44.282Z,8.52
2023-02-06T17:36:17.410Z,8.49
2023-02-06T17:38:44.293Z,7.87
2023-02-06T17:41:10.701Z,8.21
2023-02-06T17:43:37.458Z,7.77
2023-02-06T17:46:05.699Z,7.73
2023-02-06T17:48:36.699Z,7.68
2023-02-06T17:51:05.323Z,7.84
2023-02-06T17:53:34.496Z,7.99
2023-02-06T17:56:09.660Z,7.99
2023-02-06T17:58:36.022Z,8.06
2023-02-06T18:01:02.447Z,7.79
2023-02-06T18:03:28.870Z,7.52
2023-02-06T18:06:02.029Z,7.72
2023-02-06T18:08:29.203Z,7.29
2023-02-06T18:10:56.144Z,7.81
2023-02-06T18:13:24.257Z,7.25
2023-02-06T18:15:56.032Z,7.80
2023-02-06T18:18:24.751Z,7.19
2023-02-06T18:20:52.191Z,6.98
2023-02-06T18:23:21.425Z,7.29
2023-02-06T18:25:47.877Z,7.42
2023-02-06T18:28:14.945Z,7.13
2023-02-06T18:30:41.883Z,7.34
2023-02-06T18:33:08.888Z,7.24
2023-02-06T18:35:40.279Z,7.25
2023-02-06T18:38:09.657Z,6.66
2023-02-06T18:40:40.748Z,7.72
2023-02-06T18:43:07.694Z,7.83
2023-02-06T18:45:37.146Z,7.90
2023-02-06T18:48:05.660Z,7.17
2023-02-06T18:50:34.083Z,7.87
2023-02-06T18:53:00.465Z,7.71
2023-02-06T18:55:29.255Z,7.33
2023-02-06T18:57:56.481Z,8.04
2023-02-06T19:00:23.812Z,7.38
2023-02-06T19:02:50.478Z,7.43
2023-02-06T19:05:17.061Z,7.92
2023-02-06T19:07:43.621Z,7.93
2023-02-06T19:10:12.848Z,7.83
2023-02-06T19:12:39.295Z,7.20
2023-02-06T19:15:05.981Z,7.64
2023-02-06T19:17:32.961Z,7.71
2023-02-06T19:19:59.528Z,7.58
2023-02-06T19:22:26.394Z,7.56
2023-02-06T19:24:53.433Z,7.88
2023-02-06T19:27:21.194Z,7.69
2023-02-06T19:29:48.181Z,8.15
2023-02-06T19:32:14.765Z,7.55
2023-02-06T19:34:41.931Z,7.43
2023-02-06T19:37:10.017Z,7.88
2023-02-06T19:39:37.936Z,7.54
2023-02-06T19:42:06.701Z,7.50
2023-02-06T19:44:33.350Z,7.60
2023-02-06T19:47:00.216Z,7.53
2023-02-06T19:49:27.530Z,8.03
2023-02-06T19:51:53.960Z,7.31
2023-02-06T19:54:20.326Z,7.25
2023-02-06T19:56:47.727Z,7.84
2023-02-06T19:59:22.762Z,7.43
2023-02-06T20:01:53.409Z,7.65
2023-02-06T20:04:22.636Z,7.82
2023-02-06T20:06:51.008Z,7.22
2023-02-06T20:09:19.996Z,7.73
2023-02-06T20:11:48.179Z,7.55
2023-02-06T20:14:15.039Z,7.29
2023-02-06T20:16:43.077Z,7.79
2023-02-06T20:19:18.563Z,7.57
2023-02-06T20:21:48.368Z,7.39
2023-02-06T20:24:18.456Z,7.81
2023-02-06T20:26:45.564Z,7.79
2023-02-06T20:29:20.543Z,7.54
2023-02-06T20:31:47.354Z,6.97
2023-02-06T20:34:20.781Z,7.27
2023-02-06T20:36:48.306Z,6.23
2023-02-06T20:39:16.180Z,7.27
2023-02-06T20:41:43.279Z,7.34
2023-02-06T20:44:11.370Z,7.28
2023-02-06T20:46:38.167Z,7.17
2023-02-06T20:49:09.144Z,7.33
2023-02-06T20:51:35.695Z,7.26
2023-02-06T20:54:02.174Z,7.38
2023-02-06T20:56:28.660Z,7.30
2023-02-06T20:58:56.215Z,7.28
2023-02-06T21:01:25.928Z,6.79
2023-02-06T21:03:55.898Z,6.78
2023-02-06T21:06:22.850Z,6.82
2023-02-06T21:08:50.168Z,7.40
2023-02-06T21:11:17.477Z,7.31
2023-02-06T21:13:43.831Z,7.23
2023-02-06T21:16:13.448Z,7.05
2023-02-06T21:18:42.453Z,7.20
2023-02-06T21:21:11.736Z,6.77
2023-02-06T21:23:39.970Z,6.44
2023-02-06T21:26:07.601Z,7.20
2023-02-06T21:28:35.932Z,7.07
2023-02-06T21:31:09.404Z,7.11
2023-02-06T21:33:36.833Z,7.23
2023-02-06T21:36:06.948Z,6.53
2023-02-06T21:38:35.333Z,7.03
2023-02-06T21:41:19.887Z,6.11
2023-02-06T21:43:46.341Z,7.00
2023-02-06T21:46:13.527Z,6.38
2023-02-06T21:48:41.536Z,6.85
2023-02-06T21:51:11.408Z,7.02
2023-02-06T21:53:38.799Z,6.90
2023-02-06T21:56:08.039Z,6.90
2023-02-06T21:58:36.475Z,7.10
2023-02-06T22:01:08.516Z,7.09
2023-02-06T22:03:35.812Z,6.84
2023-02-06T22:06:08.604Z,7.10
2023-02-06T22:08:36.888Z,6.98
2023-02-06T22:11:30.629Z,6.84
2023-02-06T22:13:59.100Z,7.20
2023-02-06T22:16:26.563Z,7.10
2023-02-06T22:18:53.868Z,7.17
2023-02-06T22:21:22.894Z,7.08
2023-02-06T22:23:52.172Z,6.98
2023-02-06T22:26:21.013Z,7.07
2023-02-06T22:28:48.163Z,7.14
2023-02-06T22:31:24.272Z,6.78
2023-02-06T22:33:51.129Z,7.00
2023-02-06T22:36:20.404Z,6.80
2023-02-06T22:38:47.959Z,7.04
2023-02-06T22:41:16.868Z,6.82
2023-02-06T22:43:45.123Z,6.81
2023-02-06T22:46:19.612Z,6.68
2023-02-06T22:48:46.439Z,6.94
2023-02-06T22:51:13.078Z,6.78
2023-02-06T22:53:40.493Z,6.87
2023-02-06T22:56:27.321Z,6.67
2023-02-06T22:58:55.764Z,6.62
2023-02-06T23:01:24.894Z,7.02
2023-02-06T23:03:53.188Z,6.67
2023-02-06T23:06:20.231Z,6.98
2023-02-06T23:08:47.108Z,7.01
2023-02-06T23:11:15.009Z,6.80
2023-02-06T23:13:41.852Z,6.79
2023-02-06T23:16:09.520Z,6.78
2023-02-06T23:18:37.021Z,6.62
2023-02-06T23:21:12.452Z,6.86
2023-02-06T23:23:40.439Z,6.63
2023-02-06T23:26:10.318Z,5.97
2023-02-06T23:28:37.953Z,5.74
2023-02-06T23:31:05.800Z,6.61
2023-02-06T23:33:32.894Z,5.95
2023-02-06T23:36:19.581Z,6.59
2023-02-06T23:38:47.810Z,6.36
2023-02-06T23:41:20.252Z,6.40
2023-02-06T23:43:51.727Z,6.66
2023-02-06T23:46:20.122Z,6.42
2023-02-06T23:48:48.167Z,5.83
2023-02-06T23:51:15.953Z,5.64
2023-02-06T23:53:42.616Z,6.18
2023-02-06T23:56:14.804Z,6.15
2023-02-06T23:58:41.539Z,5.63
